Time;durP1;ratioP1;P1;durP2;ratioP2;P2;SDS_P1;SDS_P2;PMS_P1;PMS_P2;Temp;Humidity;BMP_temperature;BMP_pressure;BME280_temperature;BME280_humidity;BME280_pressure;Samples;Min_cycle;Max_cycle;Signal;HPM_P1;HPM_P2
2024/03/04 00:01:36;;;;;;;19.38;11.40;;;;;;;5.88;100.00;95353.75;4980978;28;20068;-72
2024/03/04 00:04:01;;;;;;;18.63;11.32;;;;;;;5.82;100.00;95360.69;4979069;28;20042;-73
2024/03/04 00:06:27;;;;;;;17.55;10.32;;;;;;;6.03;100.00;95362.88;4976870;28;20042;-74
2024/03/04 00:08:53;;;;;;;20.73;10.93;;;;;;;5.89;100.00;95371.63;4969941;28;20448;-74
2024/03/04 00:11:19;;;;;;;16.27;10.20;;;;;;;5.84;100.00;95369.25;4971183;28;20042;-71
2024/03/04 00:13:45;;;;;;;19.50;11.00;;;;;;;5.72;100.00;95372.94;4967611;28;20151;-71
2024/03/04 00:16:10;;;;;;;17.05;10.32;;;;;;;5.55;100.00;95374.28;4977253;28;20066;-73
2024/03/04 00:18:35;;;;;;;19.15;11.55;;;;;;;5.40;100.00;95377.91;4982023;28;20066;-70
2024/03/04 00:21:01;;;;;;;19.25;11.45;;;;;;;5.31;100.00;95392.56;4979164;28;20077;-72
2024/03/04 00:23:28;;;;;;;19.30;11.70;;;;;;;5.28;100.00;95396.00;4978714;28;20096;-72
2024/03/04 00:25:53;;;;;;;21.83;12.15;;;;;;;5.28;100.00;95397.94;4981721;28;20042;-72
2024/03/04 00:28:18;;;;;;;17.33;11.07;;;;;;;5.29;100.00;95410.34;4976120;28;20073;-72
2024/03/04 00:30:44;;;;;;;18.50;10.57;;;;;;;5.39;100.00;95417.88;4981762;28;20477;-71
2024/03/04 00:33:10;;;;;;;19.00;11.20;;;;;;;5.25;100.00;95423.84;4977349;28;20042;-72
2024/03/04 00:35:36;;;;;;;19.58;11.32;;;;;;;5.14;100.00;95410.09;4975613;28;20092;-72
2024/03/04 00:38:02;;;;;;;19.92;12.57;;;;;;;5.12;100.00;95422.47;4981495;28;20046;-74
2024/03/04 00:40:28;;;;;;;18.98;11.68;;;;;;;5.13;100.00;95416.69;4963360;28;20515;-73
2024/03/04 00:42:53;;;;;;;21.30;11.07;;;;;;;5.24;100.00;95426.94;4981218;28;20096;-73
2024/03/04 00:45:19;;;;;;;22.73;11.77;;;;;;;5.38;100.00;95431.81;4974292;28;20118;-73
2024/03/04 00:47:44;;;;;;;19.17;10.85;;;;;;;5.32;100.00;95444.91;4979191;28;20026;-73
2024/03/04 00:50:10;;;;;;;17.88;10.77;;;;;;;5.23;100.00;95452.53;4975177;28;20050;-73
2024/03/04 00:52:37;;;;;;;19.33;11.93;;;;;;;5.14;100.00;95460.91;4978870;28;20077;-70
2024/03/04 00:55:05;;;;;;;19.70;11.75;;;;;;;5.01;100.00;95459.50;4977700;28;20129;-74
2024/03/04 00:57:30;;;;;;;19.50;12.20;;;;;;;4.93;100.00;95459.38;4965191;28;20189;-72
2024/03/04 00:59:57;;;;;;;21.05;14.05;;;;;;;4.93;100.00;95459.38;4978820;28;20136;-73
2024/03/04 01:02:23;;;;;;;21.52;13.00;;;;;;;4.96;100.00;95464.06;4967693;28;20137;-72
2024/03/04 01:04:48;;;;;;;19.48;12.32;;;;;;;4.94;100.00;95455.50;4979947;28;20598;-72
2024/03/04 01:07:14;;;;;;;20.08;12.70;;;;;;;4.96;100.00;95464.06;4974372;28;20105;-71
2024/03/04 01:09:40;;;;;;;19.73;12.80;;;;;;;4.94;100.00;95463.66;4972951;28;20034;-72
2024/03/04 01:12:06;;;;;;;21.48;13.57;;;;;;;4.96;100.00;95476.88;4970481;28;20042;-70
2024/03/04 01:14:31;;;;;;;22.30;13.13;;;;;;;4.96;100.00;95482.28;4987580;28;20097;-73
2024/03/04 01:16:57;;;;;;;20.60;13.80;;;;;;;5.10;100.00;95498.06;5003892;28;20073;-73
2024/03/04 01:19:23;;;;;;;30.52;14.90;;;;;;;5.07;100.00;95496.84;4996519;28;20432;-72
2024/03/04 01:21:49;;;;;;;23.45;13.18;;;;;;;4.99;100.00;95492.44;4981572;28;20038;-72
2024/03/04 01:24:17;;;;;;;22.42;14.27;;;;;;;4.99;100.00;95495.16;4975321;28;20042;-72
2024/03/04 01:26:43;;;;;;;22.60;14.55;;;;;;;4.95;100.00;95489.66;4979778;28;20049;-71
2024/03/04 01:29:10;;;;;;;24.20;15.07;;;;;;;4.92;100.00;95492.31;4975926;28;20440;-73
2024/03/04 01:31:35;;;;;;;26.35;16.02;;;;;;;4.94;100.00;95481.88;4979845;28;20126;-72
2024/03/04 01:34:02;;;;;;;26.35;15.73;;;;;;;5.10;100.00;95485.25;4968860;28;20413;-70
2024/03/04 01:36:29;;;;;;;23.67;15.27;;;;;;;5.13;100.00;95489.16;4979270;28;20038;-73
2024/03/04 01:38:55;;;;;;;25.73;14.60;;;;;;;5.04;100.00;95499.47;4977989;28;20440;-70
2024/03/04 01:41:20;;;;;;;24.20;14.65;;;;;;;4.97;100.00;95497.44;4965320;28;20054;-70
2024/03/04 01:43:45;;;;;;;23.02;13.70;;;;;;;5.08;100.00;95503.84;4979487;28;20043;-72
2024/03/04 01:46:11;;;;;;;23.88;15.07;;;;;;;5.08;100.00;95509.28;4974959;28;20042;-73
2024/03/04 01:48:37;;;;;;;23.60;14.90;;;;;;;5.12;100.00;95518.25;4972484;28;20073;-75
2024/03/04 01:51:04;;;;;;;25.83;13.90;;;;;;;5.17;100.00;95522.63;4968761;28;20038;-73
2024/03/04 01:53:31;;;;;;;25.27;14.60;;;;;;;5.21;100.00;95512.59;4971954;28;20397;-74
2024/03/04 01:56:05;;;;;;;21.05;13.63;;;;;;;5.23;100.00;95512.25;4981129;28;20069;-73
2024/03/04 01:58:32;;;;;;;23.20;14.00;;;;;;;5.25;100.00;95507.22;4989128;28;20092;-71
2024/03/04 02:01:01;;;;;;;23.65;14.05;;;;;;;5.24;100.00;95502.94;4980503;28;20052;-73
2024/03/04 02:03:29;;;;;;;22.05;13.15;;;;;;;5.13;100.00;95503.56;4976216;28;20038;-73
2024/03/04 02:05:55;;;;;;;24.33;13.27;;;;;;;5.10;100.00;95506.97;4979544;28;20412;-73
2024/03/04 02:08:21;;;;;;;20.17;12.48;;;;;;;5.13;100.00;95508.97;4974429;28;20046;-73
2024/03/04 02:10:48;;;;;;;23.67;14.10;;;;;;;5.07;100.00;95513.13;4969380;28;20478;-71
2024/03/04 02:13:14;;;;;;;25.98;13.27;;;;;;;5.09;100.00;95505.41;4971639;28;20637;-73
2024/03/04 02:15:40;;;;;;;20.48;13.07;;;;;;;5.12;100.00;95510.13;4978150;28;20125;-73
2024/03/04 02:18:07;;;;;;;23.95;13.60;;;;;;;5.01;100.00;95503.72;4974505;28;20140;-73
2024/03/04 02:20:42;;;;;;;21.20;13.65;;;;;;;5.05;100.00;95515.41;4979160;28;20045;-73
2024/03/04 02:23:10;;;;;;;26.30;13.20;;;;;;;4.89;100.00;95509.28;4973296;28;20042;-73
2024/03/04 02:25:36;;;;;;;22.38;12.85;;;;;;;4.74;100.00;95506.31;4972136;28;20137;-73
2024/03/04 02:28:06;;;;;;;20.90;12.70;;;;;;;4.73;100.00;95512.84;4978187;28;20092;-74
2024/03/04 02:30:33;;;;;;;21.70;13.60;;;;;;;4.97;100.00;95511.00;4979711;28;20065;-74
2024/03/04 02:33:04;;;;;;;20.23;12.32;;;;;;;4.94;100.00;95519.84;4976565;28;20100;-74
2024/03/04 02:35:33;;;;;;;17.92;11.63;;;;;;;4.88;100.00;95521.28;4982949;28;20045;-74
2024/03/04 02:38:03;;;;;;;23.92;14.57;;;;;;;4.90;100.00;95522.50;4979944;28;20146;-74
2024/03/04 02:40:29;;;;;;;21.80;12.88;;;;;;;4.94;100.00;95526.06;4978403;28;20081;-73
2024/03/04 02:42:54;;;;;;;20.42;12.43;;;;;;;5.01;100.00;95541.69;4981437;28;20042;-74
2024/03/04 02:45:20;;;;;;;18.42;12.20;;;;;;;5.00;100.00;95539.34;4978288;28;20069;-74
2024/03/04 02:47:46;;;;;;;24.25;12.82;;;;;;;5.12;100.00;95544.63;4983010;28;20038;-76
2024/03/04 02:50:11;;;;;;;20.42;12.75;;;;;;;5.22;100.00;95548.66;4975720;28;20039;-73
2024/03/04 02:52:37;;;;;;;23.67;13.80;;;;;;;5.38;100.00;95551.28;4980241;28;20077;-73
2024/03/04 02:55:04;;;;;;;21.45;12.60;;;;;;;5.43;100.00;95549.06;4978251;28;20064;-74
2024/03/04 02:57:29;;;;;;;22.27;12.90;;;;;;;5.37;100.00;95553.22;4982144;28;20096;-73
2024/03/04 02:59:55;;;;;;;19.77;12.50;;;;;;;5.39;100.00;95553.63;4982061;28;20034;-74
2024/03/04 03:02:20;;;;;;;20.45;12.75;;;;;;;5.57;100.00;95555.88;4978748;28;20449;-71
2024/03/04 03:04:46;;;;;;;20.30;12.27;;;;;;;5.44;100.00;95566.94;4979781;28;20077;-71
2024/03/04 03:07:11;;;;;;;21.85;13.57;;;;;;;5.40;100.00;95566.06;4977550;28;20048;-73
2024/03/04 03:09:37;;;;;;;20.75;12.02;;;;;;;5.62;100.00;95569.94;4977020;28;20907;-72
2024/03/04 03:12:02;;;;;;;21.05;12.13;;;;;;;5.63;100.00;95581.59;4978941;28;20072;-73
2024/03/04 03:14:28;;;;;;;18.40;11.65;;;;;;;5.59;100.00;95581.53;4979141;28;20042;-72
2024/03/04 03:16:53;;;;;;;19.95;12.27;;;;;;;5.38;100.00;95589.28;4982217;28;20042;-71
2024/03/04 03:19:21;;;;;;;20.92;12.60;;;;;;;5.33;100.00;95583.03;4977096;28;20073;-72
2024/03/04 03:21:46;;;;;;;22.83;13.60;;;;;;;5.27;100.00;95598.03;4979949;28;20038;-73
2024/03/04 03:24:11;;;;;;;19.42;11.52;;;;;;;5.41;100.00;95602.16;4977820;28;20061;-72
2024/03/04 03:26:37;;;;;;;21.27;12.55;;;;;;;5.46;100.00;95610.03;4982842;28;20126;-74
2024/03/04 03:29:02;;;;;;;22.23;12.65;;;;;;;5.44;100.00;95621.25;4980075;28;20069;-75
2024/03/04 03:31:28;;;;;;;23.73;12.70;;;;;;;5.49;100.00;95618.22;4999784;28;20330;-74
2024/03/04 03:33:53;;;;;;;23.85;12.77;;;;;;;5.48;100.00;95615.88;4992048;28;20057;-73
2024/03/04 03:36:18;;;;;;;22.52;11.93;;;;;;;5.54;100.00;95617.91;4982187;28;20088;-72
2024/03/04 03:38:45;;;;;;;20.52;11.32;;;;;;;5.53;100.00;95619.06;4982969;28;20038;-73
2024/03/04 03:41:10;;;;;;;19.02;11.25;;;;;;;5.56;100.00;95639.28;4977701;28;20038;-73
2024/03/04 03:43:36;;;;;;;19.42;11.60;;;;;;;5.56;100.00;95631.13;4982247;28;20112;-73
2024/03/04 03:46:20;;;;;;;22.15;12.48;;;;;;;5.61;100.00;95638.22;4957036;28;20062;-71
2024/03/04 03:49:06;;;;;;;19.15;11.00;;;;;;;5.64;100.00;95642.94;4961552;28;20075;-74
2024/03/04 03:51:31;;;;;;;58.42;31.80;;;;;;;5.66;100.00;95641.44;4966021;28;20493;-74
2024/03/04 03:53:56;;;;;;;22.52;12.23;;;;;;;5.83;100.00;95652.97;4972511;28;20084;-74
2024/03/04 03:56:22;;;;;;;18.00;10.85;;;;;;;5.89;100.00;95656.97;4977938;28;20528;-74
2024/03/04 03:58:50;;;;;;;18.58;11.60;;;;;;;6.03;100.00;95653.72;4981656;28;20046;-73
2024/03/04 04:01:16;;;;;;;17.73;10.88;;;;;;;5.96;100.00;95659.03;4979479;28;20038;-74
2024/03/04 04:03:41;;;;;;;18.20;11.00;;;;;;;6.00;100.00;95659.91;4995039;28;20042;-74
2024/03/04 04:06:07;;;;;;;19.90;11.52;;;;;;;6.02;100.00;95671.97;4979870;28;20046;-73
2024/03/04 04:08:34;;;;;;;20.20;11.45;;;;;;;5.99;100.00;95674.63;4983524;28;20088;-72
2024/03/04 04:10:59;;;;;;;18.63;11.15;;;;;;;5.97;100.00;95677.72;4981601;28;20485;-74
2024/03/04 04:13:25;;;;;;;18.55;10.95;;;;;;;6.02;100.00;95684.78;4973683;28;20124;-74
2024/03/04 04:15:51;;;;;;;17.50;11.15;;;;;;;5.99;100.00;95688.22;4983725;28;20042;-73
2024/03/04 04:18:17;;;;;;;21.52;11.60;;;;;;;5.97;100.00;95702.19;4976293;28;20388;-73
2024/03/04 04:20:43;;;;;;;20.75;12.18;;;;;;;5.88;100.00;95698.88;4980277;28;20486;-73
2024/03/04 04:23:08;;;;;;;20.23;12.07;;;;;;;5.96;100.00;95699.81;4976472;28;20050;-73
2024/03/04 04:25:34;;;;;;;20.60;10.82;;;;;;;5.95;100.00;95701.72;4981030;28;20233;-74
2024/03/04 04:27:59;;;;;;;20.95;11.32;;;;;;;5.97;100.00;95709.56;4980299;28;20046;-73
2024/03/04 04:30:25;;;;;;;20.08;11.38;;;;;;;6.13;100.00;95711.00;4975564;28;20046;-73
2024/03/04 04:32:50;;;;;;;20.48;10.95;;;;;;;6.25;100.00;95712.00;4980435;28;20049;-74
2024/03/04 04:35:16;;;;;;;17.58;10.73;;;;;;;6.24;100.00;95716.63;4970030;28;20057;-74
2024/03/04 04:37:44;;;;;;;18.13;10.25;;;;;;;6.35;100.00;95724.97;4981299;28;20038;-74
2024/03/04 04:40:10;;;;;;;18.75;10.88;;;;;;;6.42;100.00;95727.81;4975593;28;20100;-72
2024/03/04 04:42:36;;;;;;;16.20;10.02;;;;;;;6.54;100.00;95726.84;4980039;28;20054;-72
2024/03/04 04:45:02;;;;;;;29.73;11.57;;;;;;;6.58;100.00;95724.97;4977716;28;20658;-73
2024/03/04 04:47:29;;;;;;;19.33;10.68;;;;;;;6.58;100.00;95729.63;4975556;28;20047;-73
2024/03/04 04:49:55;;;;;;;19.95;11.38;;;;;;;6.48;100.00;95736.44;4981386;28;20105;-73
2024/03/04 04:52:21;;;;;;;21.00;10.98;;;;;;;6.44;100.00;95735.59;4970323;28;20616;-73
2024/03/04 04:54:46;;;;;;;18.42;10.43;;;;;;;6.46;100.00;95736.03;4976138;28;20034;-72
2024/03/04 04:57:12;;;;;;;17.77;10.23;;;;;;;6.35;100.00;95746.72;4973027;28;20384;-73
2024/03/04 04:59:37;;;;;;;20.85;11.23;;;;;;;6.35;100.00;95746.72;4980871;28;20504;-72
2024/03/04 05:02:03;;;;;;;16.77;10.43;;;;;;;6.50;100.00;95750.50;4976082;28;20046;-72
2024/03/04 05:04:29;;;;;;;17.92;10.60;;;;;;;6.46;100.00;95752.34;4980097;28;20042;-73
2024/03/04 05:06:54;;;;;;;17.85;11.38;;;;;;;6.26;100.00;95749.69;4980711;28;20046;-73
2024/03/04 05:09:19;;;;;;;20.50;10.93;;;;;;;6.18;100.00;95745.28;4968629;28;20038;-73
2024/03/04 05:11:45;;;;;;;19.83;10.68;;;;;;;6.10;100.00;95747.09;4980285;28;20037;-72
2024/03/04 05:14:11;;;;;;;20.98;12.23;;;;;;;6.11;100.00;95750.59;4975980;28;20415;-73
2024/03/04 05:16:36;;;;;;;21.67;11.57;;;;;;;6.17;100.00;95760.00;4980679;28;20474;-73
2024/03/04 05:19:03;;;;;;;19.98;11.80;;;;;;;6.16;100.00;95761.16;4978220;28;20114;-74
2024/03/04 05:21:29;;;;;;;21.88;11.52;;;;;;;6.25;100.00;95763.66;4979937;28;20057;-71
2024/03/04 05:23:54;;;;;;;21.00;11.07;;;;;;;6.45;100.00;95753.50;4983058;28;20042;-73
2024/03/04 05:26:20;;;;;;;21.33;11.75;;;;;;;6.51;100.00;95760.22;4980388;28;21189;-73
2024/03/04 05:28:45;;;;;;;19.42;11.90;;;;;;;6.57;100.00;95766.13;4977617;28;20038;-72
2024/03/04 05:31:11;;;;;;;21.63;11.52;;;;;;;6.55;100.00;95769.22;4973234;28;20073;-73
2024/03/04 05:33:36;;;;;;;19.95;11.48;;;;;;;6.57;100.00;95766.13;4979806;28;20116;-72
2024/03/04 05:36:04;;;;;;;20.73;11.32;;;;;;;6.48;100.00;95769.09;4976000;28;20054;-73
2024/03/04 05:38:32;;;;;;;21.98;11.98;;;;;;;6.41;100.00;95777.13;4980790;28;20042;-72
2024/03/04 05:40:58;;;;;;;23.65;12.38;;;;;;;6.36;100.00;95772.00;4980028;28;20150;-71
2024/03/04 05:43:23;;;;;;;23.80;12.35;;;;;;;6.27;100.00;95773.03;4977066;28;20632;-73
2024/03/04 05:45:48;;;;;;;19.98;11.65;;;;;;;6.30;100.00;95779.66;4989023;28;20113;-72
2024/03/04 05:48:14;;;;;;;19.85;10.88;;;;;;;6.47;100.00;95790.06;4989251;28;20116;-73
2024/03/04 05:50:39;;;;;;;21.73;12.52;;;;;;;6.43;100.00;95791.94;4988851;28;20026;-72
2024/03/04 05:53:05;;;;;;;19.98;12.10;;;;;;;6.42;100.00;95792.31;4977632;28;20038;-72
2024/03/04 05:55:30;;;;;;;22.08;11.50;;;;;;;6.57;100.00;95793.34;4971598;28;20046;-73
2024/03/04 05:57:56;;;;;;;21.55;11.50;;;;;;;6.62;100.00;95812.88;4961521;28;20053;-71
2024/03/04 06:00:21;;;;;;;21.05;11.02;;;;;;;6.61;100.00;95811.31;4966989;28;20410;-71
2024/03/04 06:02:47;;;;;;;21.88;11.10;;;;;;;6.54;100.00;95813.91;4984126;28;20042;-71
2024/03/04 06:05:13;;;;;;;21.52;11.35;;;;;;;6.61;100.00;95807.78;4978458;28;20081;-71
2024/03/04 06:07:40;;;;;;;23.40;11.65;;;;;;;6.70;100.00;95819.25;4981628;28;20069;-71
2024/03/04 06:10:06;;;;;;;23.10;11.48;;;;;;;6.68;100.00;95822.31;4979535;28;20069;-70
2024/03/04 06:12:31;;;;;;;22.45;12.02;;;;;;;6.70;100.00;95821.97;4989498;28;20070;-71
2024/03/04 06:14:57;;;;;;;22.25;12.00;;;;;;;6.71;100.00;95809.91;4977118;28;20523;-71
2024/03/04 06:17:22;;;;;;;20.48;10.73;;;;;;;6.80;100.00;95815.13;4978507;28;20875;-70
2024/03/04 06:19:48;;;;;;;20.10;11.35;;;;;;;6.83;100.00;95815.16;4984717;28;20404;-70
2024/03/04 06:22:14;;;;;;;20.13;11.75;;;;;;;6.84;100.00;95815.94;4976595;28;20053;-70
2024/03/04 06:24:40;;;;;;;17.80;10.73;;;;;;;6.81;100.00;95812.03;4985175;28;20056;-70
2024/03/04 06:27:08;;;;;;;21.83;11.15;;;;;;;6.76;100.00;95817.78;4962574;28;20537;-70
2024/03/04 06:29:34;;;;;;;21.88;11.25;;;;;;;6.75;100.00;95827.06;4984275;28;20074;-70
2024/03/04 06:32:03;;;;;;;24.35;11.13;;;;;;;6.74;100.00;95830.97;4982365;28;20045;-72
2024/03/04 06:34:30;;;;;;;17.63;11.00;;;;;;;6.93;100.00;95837.47;4968135;28;20039;-71
2024/03/04 06:36:55;;;;;;;23.45;11.65;;;;;;;6.84;100.00;95835.81;4985231;28;20388;-71
2024/03/04 06:39:21;;;;;;;19.02;10.55;;;;;;;6.84;100.00;95835.81;4979910;28;20141;-71
2024/03/04 06:41:51;;;;;;;21.85;11.38;;;;;;;6.98;100.00;95834.47;4983904;28;20446;-70
2024/03/04 06:44:17;;;;;;;22.42;12.20;;;;;;;7.00;100.00;95838.38;4979049;28;20557;-71
2024/03/04 06:46:43;;;;;;;20.40;11.45;;;;;;;7.00;100.00;95845.78;4981613;28;20126;-72
2024/03/04 06:49:08;;;;;;;19.02;10.73;;;;;;;6.89;100.00;95851.03;4979358;28;20042;-70
2024/03/04 06:51:37;;;;;;;20.88;10.90;;;;;;;6.77;100.00;95860.19;4977858;28;20504;-70
2024/03/04 06:54:06;;;;;;;19.10;10.88;;;;;;;6.78;100.00;95855.53;4983637;28;20049;-71
2024/03/04 06:56:32;;;;;;;18.23;10.18;;;;;;;6.81;100.00;95866.47;4972314;28;20126;-71
2024/03/04 06:58:58;;;;;;;18.42;10.48;;;;;;;6.92;100.00;95868.59;4985732;28;20078;-71
2024/03/04 07:01:25;;;;;;;20.08;10.93;;;;;;;6.82;100.00;95875.41;4971038;28;20042;-71
2024/03/04 07:03:50;;;;;;;18.65;10.55;;;;;;;6.64;100.00;95875.88;4965820;28;20374;-71
2024/03/04 07:06:15;;;;;;;18.92;11.88;;;;;;;6.44;100.00;95868.91;4978567;28;20096;-71
2024/03/04 07:08:41;;;;;;;22.48;11.45;;;;;;;6.53;100.00;95876.84;4980631;28;20039;-71
2024/03/04 07:11:09;;;;;;;19.88;11.63;;;;;;;6.47;100.00;95884.50;4972005;28;20037;-71
2024/03/04 07:13:34;;;;;;;22.20;11.65;;;;;;;6.43;100.00;95884.44;4982689;28;20397;-71
2024/03/04 07:16:00;;;;;;;18.42;11.18;;;;;;;6.35;100.00;95895.53;4983407;28;20111;-72
2024/03/04 07:18:31;;;;;;;20.00;10.20;;;;;;;6.40;100.00;95892.53;4975918;28;20053;-72
2024/03/04 07:20:56;;;;;;;24.70;11.20;;;;;;;6.42;100.00;95893.72;4982738;28;20066;-71
2024/03/04 07:23:22;;;;;;;22.70;10.77;;;;;;;6.43;100.00;95895.31;4974787;28;20133;-71
2024/03/04 07:25:47;;;;;;;29.00;12.70;;;;;;;6.46;100.00;95900.06;4980547;28;20104;-71
2024/03/04 07:28:14;;;;;;;20.42;10.63;;;;;;;6.49;100.00;95906.69;4976615;28;20038;-71
2024/03/04 07:30:39;;;;;;;24.38;12.13;;;;;;;6.56;100.00;95908.78;4980812;28;20045;-71
2024/03/04 07:33:08;;;;;;;23.08;12.65;;;;;;;6.54;100.00;95906.41;4977875;28;20054;-71
2024/03/04 07:35:34;;;;;;;24.23;11.93;;;;;;;6.48;100.00;95905.09;4959447;28;20035;-71
2024/03/04 07:37:59;;;;;;;19.27;11.82;;;;;;;6.47;100.00;95907.03;4983289;28;20614;-71
2024/03/04 07:40:25;;;;;;;19.95;11.45;;;;;;;6.57;100.00;95904.88;4978477;28;20460;-71
2024/03/04 07:42:50;;;;;;;23.20;11.93;;;;;;;6.66;100.00;95916.31;4981076;28;20620;-71
2024/03/04 07:45:15;;;;;;;21.90;11.82;;;;;;;6.62;100.00;95915.47;4975448;28;20047;-71
2024/03/04 07:47:41;;;;;;;18.23;10.85;;;;;;;6.68;100.00;95919.47;4981436;28;20070;-71
2024/03/04 07:50:07;;;;;;;20.63;10.02;;;;;;;6.63;100.00;95927.94;4976679;28;20046;-71
2024/03/04 07:52:32;;;;;;;20.95;10.80;;;;;;;6.73;100.00;95927.34;4978568;28;20069;-72
2024/03/04 07:54:57;;;;;;;20.95;11.57;;;;;;;6.88;100.00;95937.38;4981720;28;20133;-72
2024/03/04 07:57:23;;;;;;;23.40;11.05;;;;;;;6.87;100.00;95933.06;4977358;28;20042;-72
2024/03/04 07:59:48;;;;;;;23.48;9.93;;;;;;;6.95;100.00;95935.91;4976513;28;20034;-70
2024/03/04 08:02:14;;;;;;;16.20;9.32;;;;;;;6.96;100.00;95934.78;4970599;28;20042;-73
2024/03/04 08:04:43;;;;;;;21.38;11.57;;;;;;;6.76;100.00;95937.53;4990915;28;20113;-71
2024/03/04 08:07:08;;;;;;;15.45;9.75;;;;;;;6.76;100.00;95932.06;4979949;28;20042;-73
2024/03/04 08:09:34;;;;;;;17.60;10.30;;;;;;;6.78;100.00;95937.94;4974040;28;20043;-72
2024/03/04 08:11:59;;;;;;;16.67;9.70;;;;;;;6.72;100.00;95942.13;4974294;28;20042;-72
2024/03/04 08:14:25;;;;;;;17.27;9.93;;;;;;;6.71;100.00;95935.09;4975955;28;20677;-72
2024/03/04 08:16:50;;;;;;;17.33;9.70;;;;;;;6.65;100.00;95950.94;4992212;28;20044;-71
2024/03/04 08:19:15;;;;;;;18.40;10.10;;;;;;;6.74;100.00;95942.53;4995010;28;20062;-70
2024/03/04 08:21:44;;;;;;;19.38;10.23;;;;;;;6.68;100.00;95946.69;4980010;28;20046;-72
2024/03/04 08:24:09;;;;;;;18.73;10.00;;;;;;;6.82;100.00;95949.69;4975302;28;20125;-71
2024/03/04 08:26:35;;;;;;;20.27;9.75;;;;;;;6.98;100.00;95937.91;4981684;28;20129;-71
2024/03/04 08:29:00;;;;;;;17.55;9.95;;;;;;;6.99;100.00;95945.72;4975847;28;20049;-71
2024/03/04 08:31:25;;;;;;;18.63;9.45;;;;;;;7.08;100.00;95951.72;4990160;28;20042;-71
2024/03/04 08:33:51;;;;;;;18.38;9.65;;;;;;;7.12;100.00;95951.00;4981021;28;20100;-71
2024/03/04 08:36:16;;;;;;;18.15;10.00;;;;;;;7.17;100.00;95953.44;4971807;28;20619;-71
2024/03/04 08:38:42;;;;;;;17.40;9.35;;;;;;;7.20;100.00;95953.50;4980365;28;20558;-72
2024/03/04 08:41:08;;;;;;;16.77;10.18;;;;;;;7.13;100.00;95955.28;4974921;28;20062;-72
2024/03/04 08:43:33;;;;;;;18.02;9.82;;;;;;;7.17;100.00;95958.88;4978639;28;20046;-73
2024/03/04 08:45:59;;;;;;;15.40;9.25;;;;;;;7.32;100.00;95963.41;4986549;28;20050;-72
2024/03/04 08:48:24;;;;;;;16.25;9.50;;;;;;;7.33;100.00;95966.91;4993266;28;20505;-72
2024/03/04 08:50:50;;;;;;;20.10;10.98;;;;;;;7.35;100.00;95967.38;4979965;28;20081;-74
2024/03/04 08:53:15;;;;;;;18.63;11.02;;;;;;;7.37;100.00;95975.94;4980134;28;20038;-71
2024/03/04 08:55:40;;;;;;;19.08;10.32;;;;;;;7.22;100.00;95972.16;4974323;28;20069;-73
2024/03/04 08:58:06;;;;;;;20.00;10.48;;;;;;;7.21;100.00;95970.63;4977985;28;20440;-72
2024/03/04 09:00:31;;;;;;;17.27;9.52;;;;;;;7.09;100.00;95968.84;4973153;28;20046;-73
2024/03/04 09:02:57;;;;;;;16.75;9.93;;;;;;;7.17;100.00;95972.50;4973112;28;20045;-72
2024/03/04 09:05:22;;;;;;;18.50;9.63;;;;;;;7.21;100.00;95978.78;4952507;28;20038;-72
2024/03/04 09:07:49;;;;;;;16.20;9.75;;;;;;;7.14;100.00;95979.44;4976271;28;20116;-74
2024/03/04 09:10:17;;;;;;;16.15;10.15;;;;;;;7.20;100.00;95985.38;4963072;28;20224;-74
2024/03/04 09:12:44;;;;;;;16.88;9.27;;;;;;;7.30;100.00;95992.94;4979727;28;20069;-73
2024/03/04 09:15:12;;;;;;;17.45;9.45;;;;;;;7.16;100.00;95985.31;4976337;28;20050;-74
2024/03/04 09:17:41;;;;;;;16.17;9.70;;;;;;;7.22;100.00;95994.78;4980234;28;20054;-74
2024/03/04 09:20:08;;;;;;;17.08;8.77;;;;;;;7.25;100.00;95999.47;4977063;28;20128;-72
2024/03/04 09:22:33;;;;;;;20.63;10.40;;;;;;;7.55;100.00;95995.31;4980556;28;20053;-72
2024/03/04 09:24:59;;;;;;;21.33;10.35;;;;;;;7.62;100.00;96003.63;4981520;28;20042;-73
2024/03/04 09:27:24;;;;;;;14.68;9.50;;;;;;;7.82;100.00;95998.88;4976681;28;20069;-71
2024/03/04 09:29:49;;;;;;;17.10;9.18;;;;;;;7.87;100.00;96009.47;4981071;28;20445;-73
2024/03/04 09:32:15;;;;;;;18.27;9.95;;;;;;;7.74;100.00;96006.16;4976068;28;20581;-73
2024/03/04 09:34:40;;;;;;;16.58;9.18;;;;;;;7.45;100.00;96008.41;4979262;28;20034;-73
2024/03/04 09:37:06;;;;;;;14.18;8.65;;;;;;;7.43;100.00;96012.63;4963534;28;20501;-73
2024/03/04 09:39:32;;;;;;;17.20;9.20;;;;;;;7.44;100.00;96011.50;4978104;28;20374;-75
2024/03/04 09:41:58;;;;;;;16.70;8.93;;;;;;;7.63;100.00;96019.63;4994898;28;20406;-72
2024/03/04 09:44:27;;;;;;;16.38;9.07;;;;;;;7.57;100.00;96026.50;4976601;28;20046;-72
2024/03/04 09:46:54;;;;;;;17.02;8.80;;;;;;;7.64;100.00;96028.56;4976955;28;20046;-71
2024/03/04 09:49:23;;;;;;;16.48;8.35;;;;;;;7.45;100.00;96024.75;4975237;28;20049;-72
2024/03/04 09:51:50;;;;;;;13.35;8.77;;;;;;;7.47;100.00;96022.44;4973267;28;20046;-74
2024/03/04 09:54:15;;;;;;;17.77;8.70;;;;;;;7.49;100.00;96030.28;4979212;28;20053;-74
2024/03/04 09:56:41;;;;;;;18.67;9.23;;;;;;;7.50;100.00;96025.59;4986016;28;20050;-73
2024/03/04 09:59:06;;;;;;;15.48;8.27;;;;;;;7.28;100.00;96033.38;4980674;28;20088;-73
2024/03/04 10:01:32;;;;;;;16.13;9.05;;;;;;;7.24;100.00;96032.53;4978456;28;20050;-73
2024/03/04 10:03:57;;;;;;;17.77;8.80;;;;;;;7.53;100.00;96035.78;4983741;28;20527;-73
2024/03/04 10:06:23;;;;;;;20.17;9.65;;;;;;;7.52;100.00;96034.97;4977507;28;20632;-74
2024/03/04 10:08:49;;;;;;;16.48;8.85;;;;;;;7.52;100.00;96032.25;4972041;28;20050;-73
2024/03/04 10:11:15;;;;;;;15.20;8.85;;;;;;;7.50;100.00;96048.19;4964989;28;20157;-72
2024/03/04 10:13:41;;;;;;;16.50;9.88;;;;;;;7.63;100.00;96037.88;4970271;28;20509;-73
2024/03/04 10:16:13;;;;;;;19.25;8.77;;;;;;;7.77;100.00;96048.25;4968316;28;20094;-73
2024/03/04 10:18:38;;;;;;;19.08;8.57;;;;;;;8.21;100.00;96040.38;4987131;28;20047;-73
2024/03/04 10:21:04;;;;;;;18.75;8.68;;;;;;;8.28;100.00;96049.81;4983964;28;20335;-73
2024/03/04 10:23:29;;;;;;;27.17;13.88;;;;;;;8.19;100.00;96044.63;4996345;28;20042;-72
2024/03/04 10:26:08;;;;;;;21.52;10.02;;;;;;;8.01;100.00;96050.59;4994152;28;20046;-72
2024/03/04 10:28:39;;;;;;;18.50;8.00;;;;;;;7.88;100.00;96051.16;4986933;28;20050;-73
2024/03/04 10:31:12;;;;;;;14.23;8.02;;;;;;;8.02;100.00;96046.72;4975113;28;20035;-72
2024/03/04 10:33:39;;;;;;;17.65;8.43;;;;;;;8.12;100.00;96045.31;4985649;28;20569;-72
2024/03/04 10:36:17;;;;;;;14.82;8.52;;;;;;;8.36;100.00;96043.31;4974573;28;20053;-73
2024/03/04 10:38:47;;;;;;;15.38;8.35;;;;;;;8.35;100.00;96050.69;4984707;28;20046;-73
2024/03/04 10:41:20;;;;;;;13.90;7.93;;;;;;;8.40;100.00;96044.94;4977847;28;20485;-74
2024/03/04 10:43:46;;;;;;;16.23;7.95;;;;;;;8.75;100.00;96051.25;4984394;28;20042;-71
2024/03/04 10:46:14;;;;;;;15.05;7.93;;;;;;;9.15;100.00;96050.59;4980191;28;20042;-73
2024/03/04 10:48:40;;;;;;;12.63;7.80;;;;;;;8.98;100.00;96048.44;4984027;28;20091;-72
2024/03/04 10:51:07;;;;;;;21.10;10.52;;;;;;;9.12;100.00;96045.88;4977382;28;20101;-74
2024/03/04 10:53:33;;;;;;;22.08;9.43;;;;;;;9.35;100.00;96053.16;4982361;28;20134;-73
2024/03/04 10:56:06;;;;;;;15.00;8.93;;;;;;;9.17;100.00;96053.75;4999607;28;20041;-74
2024/03/04 10:58:33;;;;;;;16.92;9.32;;;;;;;9.47;100.00;96055.63;4981970;28;20072;-73
2024/03/04 11:01:03;;;;;;;16.73;8.93;;;;;;;9.20;100.00;96049.50;4982568;28;20092;-73
2024/03/04 11:03:30;;;;;;;17.08;9.90;;;;;;;9.38;100.00;96049.66;4973955;28;20062;-72
2024/03/04 11:05:57;;;;;;;15.98;8.77;;;;;;;9.31;100.00;96061.31;4977411;28;20042;-73
2024/03/04 11:08:34;;;;;;;16.60;9.63;;;;;;;9.50;100.00;96046.66;4997224;28;20555;-73
2024/03/04 11:11:12;;;;;;;17.80;9.38;;;;;;;9.47;100.00;96050.16;4979957;28;20034;-73
2024/03/04 11:14:09;;;;;;;15.50;8.82;;;;;;;9.99;100.00;96054.91;4991301;28;20122;-73
2024/03/04 11:16:41;;;;;;;19.52;10.00;;;;;;;9.87;100.00;96053.28;4982751;28;20109;-73